createdAt,value
2019-02-27T00:00:15.877Z,-2.90
2019-02-27T00:01:06.931Z,-2.90
2019-02-27T00:01:49.686Z,-2.90
2019-02-27T00:02:25.876Z,-3.00
2019-02-27T00:03:01.274Z,-3.10
2019-02-27T00:03:36.708Z,-3.10
2019-02-27T00:04:12.702Z,-3.10
2019-02-27T00:04:48.090Z,-3.10
2019-02-27T00:05:23.586Z,-3.10
2019-02-27T00:05:58.935Z,-3.10
2019-02-27T00:06:34.366Z,-3.00
2019-02-27T00:07:09.978Z,-3.00
2019-02-27T00:07:45.429Z,-3.00
2019-02-27T00:08:20.965Z,-3.00
2019-02-27T00:08:57.877Z,-2.90
2019-02-27T00:09:33.508Z,-2.90
2019-02-27T00:10:09.003Z,-2.80
2019-02-27T00:10:44.334Z,-2.80
2019-02-27T00:11:19.653Z,-2.80
2019-02-27T00:11:55.212Z,-2.80
2019-02-27T00:12:30.630Z,-2.70
2019-02-27T00:13:06.049Z,-2.70
2019-02-27T00:13:41.382Z,-2.70
2019-02-27T00:14:16.797Z,-2.70
2019-02-27T00:14:52.357Z,-2.70
2019-02-27T00:15:27.749Z,-2.70
2019-02-27T00:16:03.293Z,-2.70
2019-02-27T00:16:38.727Z,-2.60
2019-02-27T00:17:17.750Z,-2.50
2019-02-27T00:17:52.038Z,-2.50
2019-02-27T00:18:27.691Z,-2.40
2019-02-27T00:19:03.190Z,-2.50
2019-02-27T00:19:38.786Z,-2.40
2019-02-27T00:20:14.389Z,-2.40
2019-02-27T00:20:49.801Z,-2.30
2019-02-27T00:21:25.242Z,-2.30
2019-02-27T00:22:00.671Z,-2.20
2019-02-27T00:22:36.105Z,-2.10
2019-02-27T00:23:11.637Z,-2.00
2019-02-27T00:23:47.171Z,-1.90
2019-02-27T00:24:22.721Z,-1.80
2019-02-27T00:24:58.280Z,-1.80
2019-02-27T00:25:35.913Z,-1.70
2019-02-27T00:26:10.942Z,-1.70
2019-02-27T00:26:46.482Z,-1.60
2019-02-27T00:27:22.025Z,-1.60
2019-02-27T00:27:57.446Z,-1.40
2019-02-27T00:28:32.873Z,-1.30
2019-02-27T00:29:08.287Z,-1.20
2019-02-27T00:29:43.846Z,-1.10
2019-02-27T00:30:19.262Z,-1.00
2019-02-27T00:30:54.785Z,-0.90
2019-02-27T00:31:31.283Z,-0.80
2019-02-27T00:32:07.069Z,-0.80
2019-02-27T00:32:42.490Z,-0.70
2019-02-27T00:33:17.830Z,-0.70
2019-02-27T00:33:53.321Z,-0.70
2019-02-27T00:34:32.808Z,-0.50
2019-02-27T00:35:07.370Z,-0.50
2019-02-27T00:35:42.838Z,-0.40
2019-02-27T00:36:18.219Z,-0.30
2019-02-27T00:36:53.469Z,-0.30
2019-02-27T00:37:28.728Z,-0.20
2019-02-27T00:38:04.267Z,-0.10
2019-02-27T00:38:39.886Z,-0.10
2019-02-27T00:39:15.473Z,-0.10
2019-02-27T00:39:51.098Z,0.00
2019-02-27T00:40:26.687Z,0.00
2019-02-27T00:41:02.226Z,0.10
2019-02-27T00:41:37.639Z,0.20
2019-02-27T00:42:13.005Z,0.20
2019-02-27T00:42:48.424Z,0.30
2019-02-27T00:43:25.979Z,0.30
2019-02-27T00:44:01.945Z,0.30
2019-02-27T00:44:37.571Z,0.30
2019-02-27T00:45:13.025Z,0.30
2019-02-27T00:45:48.340Z,0.20
2019-02-27T00:46:23.960Z,0.20
2019-02-27T00:46:59.399Z,0.20
2019-02-27T00:47:34.919Z,0.30
2019-02-27T00:48:10.359Z,0.30
2019-02-27T00:48:45.893Z,0.30
2019-02-27T00:49:21.211Z,0.20
2019-02-27T00:49:56.633Z,0.20
2019-02-27T00:50:32.236Z,0.20
2019-02-27T00:51:09.637Z,0.20
2019-02-27T00:51:45.400Z,0.10
2019-02-27T00:52:20.831Z,0.10
2019-02-27T00:52:56.259Z,0.10
2019-02-27T00:53:31.590Z,0.10
2019-02-27T00:54:06.919Z,0.10
2019-02-27T00:54:42.592Z,0.10
2019-02-27T00:55:18.147Z,0.20
2019-02-27T00:55:53.415Z,0.10
2019-02-27T00:56:28.849Z,0.10
2019-02-27T00:57:04.265Z,0.00
2019-02-27T00:57:39.797Z,0.00
2019-02-27T00:58:15.325Z,0.00
2019-02-27T00:58:50.851Z,0.00
2019-02-27T00:59:26.530Z,-0.10
2019-02-27T01:00:06.243Z,-0.10
2019-02-27T01:00:39.371Z,-0.10
2019-02-27T01:01:15.588Z,-0.10
2019-02-27T01:01:51.107Z,-0.10
2019-02-27T01:02:26.675Z,-0.20
2019-02-27T01:03:02.186Z,-0.30
2019-02-27T01:03:37.606Z,-0.30
2019-02-27T01:04:13.150Z,-0.40
2019-02-27T01:04:48.476Z,-0.40
2019-02-27T01:05:23.955Z,-0.50
2019-02-27T01:05:59.543Z,-0.50
2019-02-27T01:06:34.977Z,-0.50
2019-02-27T01:07:10.299Z,-0.50
2019-02-27T01:07:45.711Z,-0.60
2019-02-27T01:08:21.058Z,-0.60
2019-02-27T01:08:56.604Z,-0.60
2019-02-27T01:09:32.109Z,-0.60
2019-02-27T01:10:12.010Z,-0.70
2019-02-27T01:10:45.938Z,-0.70
2019-02-27T01:11:21.507Z,-0.70
2019-02-27T01:11:57.002Z,-0.80
2019-02-27T01:12:32.533Z,-0.80
2019-02-27T01:13:07.865Z,-0.80
2019-02-27T01:13:43.285Z,-0.80
2019-02-27T01:14:18.854Z,-0.90
2019-02-27T01:14:54.183Z,-0.90
2019-02-27T01:15:29.656Z,-1.00
2019-02-27T01:16:05.024Z,-1.10
2019-02-27T01:16:40.346Z,-1.20
2019-02-27T01:17:15.774Z,-1.20
2019-02-27T01:17:51.316Z,-1.20
2019-02-27T01:18:30.533Z,-1.20
2019-02-27T01:19:04.655Z,-1.20
2019-02-27T01:19:42.663Z,-1.20
2019-02-27T01:20:17.919Z,-1.30
2019-02-27T01:20:53.196Z,-1.30
2019-02-27T01:21:28.610Z,-1.30
2019-02-27T01:22:03.942Z,-1.40
2019-02-27T01:22:39.343Z,-1.40
2019-02-27T01:23:14.789Z,-1.50
2019-02-27T01:23:50.132Z,-1.50
2019-02-27T01:24:25.648Z,-1.50
2019-02-27T01:25:01.295Z,-1.60
2019-02-27T01:25:36.695Z,-1.60
2019-02-27T01:26:12.055Z,-1.70
2019-02-27T01:26:47.571Z,-1.70
2019-02-27T01:27:23.038Z,-1.80
2019-02-27T01:27:58.346Z,-1.80
2019-02-27T01:28:33.863Z,-1.80
2019-02-27T01:29:09.406Z,-1.90
2019-02-27T01:29:45.029Z,-1.90
2019-02-27T01:30:24.022Z,-2.00
2019-02-27T01:30:57.699Z,-2.00
2019-02-27T01:31:33.414Z,-2.10
2019-02-27T01:32:08.819Z,-2.10
2019-02-27T01:32:44.358Z,-2.10
2019-02-27T01:33:19.759Z,-2.20
2019-02-27T01:33:55.222Z,-2.20
2019-02-27T01:34:30.654Z,-2.20
2019-02-27T01:35:06.813Z,-2.20
2019-02-27T01:35:42.130Z,-2.20
2019-02-27T01:36:17.578Z,-2.30
2019-02-27T01:36:54.914Z,-2.40
2019-02-27T01:37:31.689Z,-2.40
2019-02-27T01:38:07.218Z,-2.40
2019-02-27T01:38:42.640Z,-2.50
2019-02-27T01:39:18.074Z,-2.50
2019-02-27T01:39:53.690Z,-2.60
2019-02-27T01:40:29.256Z,-2.70
2019-02-27T01:41:04.730Z,-2.90
2019-02-27T01:41:40.319Z,-3.00
2019-02-27T01:42:15.760Z,-3.00
2019-02-27T01:42:51.699Z,-3.00
2019-02-27T01:43:27.205Z,-3.00
2019-02-27T01:44:02.874Z,-3.00
2019-02-27T01:44:38.296Z,-3.10
2019-02-27T01:45:20.738Z,-3.20
2019-02-27T01:45:54.311Z,-3.20
2019-02-27T01:46:30.002Z,-3.20
2019-02-27T01:47:05.436Z,-3.20
2019-02-27T01:47:41.124Z,-3.20
2019-02-27T01:48:16.425Z,-3.20
2019-02-27T01:48:51.715Z,-3.30
2019-02-27T01:49:27.162Z,-3.30
2019-02-27T01:50:02.574Z,-3.30
2019-02-27T01:50:39.013Z,-3.30
2019-02-27T01:51:14.475Z,-3.20
2019-02-27T01:51:49.994Z,-3.20
2019-02-27T01:52:25.544Z,-3.20
2019-02-27T01:53:01.067Z,-3.30
2019-02-27T01:53:37.938Z,-3.30
2019-02-27T01:54:15.077Z,-3.20
2019-02-27T01:54:50.649Z,-3.20
2019-02-27T01:55:26.059Z,-3.10
2019-02-27T01:56:01.511Z,-3.10
2019-02-27T01:56:37.042Z,-3.10
2019-02-27T01:57:12.449Z,-3.00
2019-02-27T01:57:47.886Z,-3.00
2019-02-27T01:58:23.326Z,-2.90
2019-02-27T01:58:58.948Z,-2.90
2019-02-27T01:59:34.496Z,-2.90
2019-02-27T02:00:10.067Z,-2.90
2019-02-27T02:00:45.775Z,-2.90
2019-02-27T02:01:21.729Z,-2.90
2019-02-27T02:01:57.041Z,-2.80
2019-02-27T02:02:34.934Z,-2.80
2019-02-27T02:03:11.190Z,-2.80
2019-02-27T02:03:47.570Z,-2.80
2019-02-27T02:04:23.046Z,-2.80
2019-02-27T02:04:58.491Z,-2.80
2019-02-27T02:05:34.031Z,-2.90
2019-02-27T02:06:09.509Z,-2.90
2019-02-27T02:06:44.891Z,-2.80
2019-02-27T02:07:20.310Z,-2.80
2019-02-27T02:07:56.137Z,-2.90
2019-02-27T02:08:31.662Z,-2.90
2019-02-27T02:09:30.039Z,-2.90
2019-02-27T02:10:05.711Z,-2.90
2019-02-27T02:10:41.111Z,-3.00
2019-02-27T02:11:16.518Z,-3.10
2019-02-27T02:11:51.963Z,-3.20
2019-02-27T02:12:32.571Z,-3.30
2019-02-27T02:13:15.203Z,-3.30
2019-02-27T02:14:27.312Z,-3.40
2019-02-27T02:15:36.221Z,-3.50
2019-02-27T02:16:34.122Z,-3.50
2019-02-27T02:17:32.440Z,-3.50
2019-02-27T02:18:42.498Z,-3.40
2019-02-27T02:19:53.975Z,-3.40
2019-02-27T02:20:51.095Z,-3.40
2019-02-27T02:21:52.335Z,-3.50
2019-02-27T02:22:58.685Z,-3.60
2019-02-27T02:23:54.235Z,-3.60
2019-02-27T02:24:47.362Z,-3.60
2019-02-27T02:25:38.840Z,-3.60
2019-02-27T02:26:58.756Z,-3.60
2019-02-27T02:28:36.000Z,-3.70
2019-02-27T02:30:00.755Z,-3.80
2019-02-27T02:31:23.938Z,-3.80
2019-02-27T02:32:18.098Z,-3.80
2019-02-27T02:33:16.968Z,-3.80
2019-02-27T02:34:39.885Z,-3.70
2019-02-27T02:35:42.192Z,-3.80
2019-02-27T02:37:02.880Z,-3.80
2019-02-27T02:38:12.019Z,-3.80
2019-02-27T02:39:26.435Z,-3.80
2019-02-27T02:40:34.342Z,-3.70
2019-02-27T02:41:51.771Z,-3.70
2019-02-27T02:43:04.246Z,-3.70
2019-02-27T02:44:21.077Z,-3.60
2019-02-27T02:45:52.187Z,-3.60
2019-02-27T02:46:58.903Z,-3.60
2019-02-27T02:48:10.426Z,-3.70
2019-02-27T02:49:09.628Z,-3.70
2019-02-27T02:50:17.713Z,-3.70
2019-02-27T02:51:30.407Z,-3.90
2019-02-27T02:52:28.840Z,-3.90
2019-02-27T02:53:34.185Z,-3.80
2019-02-27T02:55:11.921Z,-3.80
2019-02-27T02:56:24.808Z,-3.70
2019-02-27T02:57:26.052Z,-3.60
2019-02-27T02:58:13.372Z,-3.60
2019-02-27T02:59:24.953Z,-3.60
2019-02-27T03:00:08.190Z,-3.70
2019-02-27T03:01:14.146Z,-3.80
2019-02-27T03:02:15.899Z,-3.80
2019-02-27T03:03:37.657Z,-3.80
2019-02-27T03:04:59.168Z,-3.80
2019-02-27T03:06:10.758Z,-3.90
2019-02-27T03:07:22.628Z,-3.90
2019-02-27T03:08:31.227Z,-3.90
2019-02-27T03:09:40.050Z,-3.80
2019-02-27T03:10:49.599Z,-3.80
2019-02-27T03:12:01.292Z,-3.80
2019-02-27T03:13:08.602Z,-3.80
2019-02-27T03:14:20.630Z,-3.70
2019-02-27T03:15:28.406Z,-3.70
2019-02-27T03:16:26.800Z,-3.60
2019-02-27T03:17:25.002Z,-3.60
2019-02-27T03:18:53.224Z,-3.80
2019-02-27T03:20:03.469Z,-3.80
2019-02-27T03:21:27.356Z,-3.70
2019-02-27T03:22:24.262Z,-3.60
2019-02-27T03:23:33.358Z,-3.40
2019-02-27T03:24:35.756Z,-3.30
2019-02-27T03:25:52.134Z,-3.10
2019-02-27T03:26:59.207Z,-3.10
2019-02-27T03:28:07.496Z,-3.00
2019-02-27T03:29:04.746Z,-2.90
2019-02-27T03:30:01.811Z,-2.90
2019-02-27T03:31:03.194Z,-2.90
2019-02-27T03:32:02.738Z,-2.90
2019-02-27T03:32:56.010Z,-2.90
2019-02-27T03:34:05.497Z,-2.90
2019-02-27T03:35:35.226Z,-2.90
2019-02-27T03:36:36.104Z,-2.90
2019-02-27T03:37:58.387Z,-3.00
2019-02-27T03:39:34.406Z,-3.10
2019-02-27T03:40:57.172Z,-3.30
2019-02-27T03:42:12.012Z,-3.30
2019-02-27T03:43:11.503Z,-3.20
2019-02-27T03:44:35.187Z,-3.30
2019-02-27T03:45:34.150Z,-3.30
2019-02-27T03:47:05.301Z,-3.40
2019-02-27T03:48:27.550Z,-3.40
2019-02-27T03:49:28.024Z,-3.40
2019-02-27T03:50:56.703Z,-3.30
2019-02-27T03:52:11.766Z,-3.40
2019-02-27T03:53:16.582Z,-3.40
2019-02-27T03:54:28.802Z,-3.40
2019-02-27T03:55:47.843Z,-3.50
2019-02-27T03:56:54.594Z,-3.60
2019-02-27T03:58:10.601Z,-3.70
2019-02-27T03:59:13.863Z,-3.80
2019-02-27T04:00:37.721Z,-3.80
2019-02-27T04:01:30.475Z,-3.70
2019-02-27T04:02:45.049Z,-3.70
2019-02-27T04:03:35.421Z,-3.80
2019-02-27T04:04:35.861Z,-3.80
2019-02-27T04:06:00.698Z,-3.80
2019-02-27T04:07:19.885Z,-3.80
2019-02-27T04:08:34.495Z,-3.80
2019-02-27T04:09:10.260Z,-3.80
2019-02-27T04:09:45.797Z,-3.90
2019-02-27T04:10:21.301Z,-3.90
2019-02-27T04:10:56.771Z,-3.90
2019-02-27T04:11:32.071Z,-3.90
2019-02-27T04:12:07.649Z,-4.00
2019-02-27T04:12:43.247Z,-3.90
2019-02-27T04:13:18.591Z,-4.00
2019-02-27T04:13:54.315Z,-4.00
2019-02-27T04:14:40.279Z,-4.10
2019-02-27T04:15:11.110Z,-4.10
2019-02-27T04:15:46.530Z,-4.20
2019-02-27T04:16:21.910Z,-4.20
2019-02-27T04:16:57.305Z,-4.20
2019-02-27T04:17:30.673Z,-4.20
2019-02-27T04:18:03.954Z,-4.20
2019-02-27T04:18:37.231Z,-4.20
2019-02-27T04:19:12.867Z,-4.20
2019-02-27T04:19:48.529Z,-4.30
2019-02-27T04:20:23.821Z,-4.30
2019-02-27T04:21:00.553Z,-4.20
2019-02-27T04:21:36.395Z,-4.20
2019-02-27T04:22:11.776Z,-4.30
2019-02-27T04:22:47.387Z,-4.30
2019-02-27T04:23:22.843Z,-4.20
2019-02-27T04:23:58.394Z,-4.30
2019-02-27T04:24:33.795Z,-4.30
2019-02-27T04:25:09.438Z,-4.30
2019-02-27T04:25:44.867Z,-4.30
2019-02-27T04:26:20.508Z,-4.20
2019-02-27T04:26:56.109Z,-4.30
2019-02-27T04:27:31.794Z,-4.30
2019-02-27T04:28:07.307Z,-4.30
2019-02-27T04:28:42.726Z,-4.30
2019-02-27T04:29:18.260Z,-4.30
2019-02-27T04:29:53.728Z,-4.30
2019-02-27T04:30:29.009Z,-4.30
2019-02-27T04:31:04.373Z,-4.30
2019-02-27T04:31:39.874Z,-4.30
2019-02-27T04:32:15.376Z,-4.30
2019-02-27T04:32:50.834Z,-4.30
2019-02-27T04:33:26.170Z,-4.30
2019-02-27T04:34:01.607Z,-4.30
2019-02-27T04:34:36.952Z,-4.30
2019-02-27T04:35:12.578Z,-4.30
2019-02-27T04:35:48.098Z,-4.40
2019-02-27T04:36:23.521Z,-4.40
2019-02-27T04:36:58.975Z,-4.50
2019-02-27T04:37:34.374Z,-4.50
2019-02-27T04:38:10.003Z,-4.50
2019-02-27T04:38:46.405Z,-4.50
2019-02-27T04:39:21.818Z,-4.50
2019-02-27T04:39:57.304Z,-4.50
2019-02-27T04:40:32.688Z,-4.40
2019-02-27T04:41:08.109Z,-4.40
2019-02-27T04:41:43.666Z,-4.30
2019-02-27T04:42:19.238Z,-4.30
2019-02-27T04:42:57.046Z,-4.40
2019-02-27T04:43:32.295Z,-4.30
2019-02-27T04:44:08.263Z,-4.40
2019-02-27T04:44:43.780Z,-4.40
2019-02-27T04:45:19.299Z,-4.40
2019-02-27T04:45:54.735Z,-4.40
2019-02-27T04:46:30.646Z,-4.40
2019-02-27T04:47:06.089Z,-4.40
2019-02-27T04:47:41.444Z,-4.40
2019-02-27T04:48:16.937Z,-4.50
2019-02-27T04:48:52.370Z,-4.50
2019-02-27T04:49:27.938Z,-4.50
2019-02-27T04:50:03.375Z,-4.50
2019-02-27T04:50:38.698Z,-4.50
2019-02-27T04:51:16.897Z,-4.50
2019-02-27T04:51:51.198Z,-4.50
2019-02-27T04:52:26.530Z,-4.50
2019-02-27T04:53:01.887Z,-4.50
2019-02-27T04:53:37.390Z,-4.50
2019-02-27T04:54:12.812Z,-4.60
2019-02-27T04:54:48.137Z,-4.60
2019-02-27T04:55:23.555Z,-4.60
2019-02-27T04:55:58.991Z,-4.50
2019-02-27T04:56:34.445Z,-4.50
2019-02-27T04:57:09.853Z,-4.50
2019-02-27T04:57:45.266Z,-4.50
2019-02-27T04:58:20.590Z,-4.50
2019-02-27T04:58:56.071Z,-4.50
2019-02-27T04:59:31.462Z,-4.40
2019-02-27T05:00:07.140Z,-4.40
2019-02-27T05:00:42.629Z,-4.40
2019-02-27T05:01:18.059Z,-4.40
2019-02-27T05:01:53.504Z,-4.40
2019-02-27T05:02:28.932Z,-4.40
2019-02-27T05:03:04.394Z,-4.30
2019-02-27T05:03:39.854Z,-4.30
2019-02-27T05:04:15.214Z,-4.30
2019-02-27T05:04:50.659Z,-4.30
2019-02-27T05:05:26.076Z,-4.30
2019-02-27T05:06:01.416Z,-4.40
2019-02-27T05:06:36.836Z,-4.40
2019-02-27T05:07:12.268Z,-4.30
2019-02-27T05:07:47.586Z,-4.40
2019-02-27T05:08:26.890Z,-4.50
2019-02-27T05:09:00.740Z,-4.50
2019-02-27T05:09:36.237Z,-4.50
2019-02-27T05:10:11.894Z,-4.50
2019-02-27T05:10:47.295Z,-4.50
2019-02-27T05:11:22.735Z,-4.50
2019-02-27T05:11:58.075Z,-4.50
2019-02-27T05:12:33.375Z,-4.60
2019-02-27T05:13:08.843Z,-4.60
2019-02-27T05:13:44.402Z,-4.60
2019-02-27T05:14:19.974Z,-4.60
2019-02-27T05:14:55.437Z,-4.60
2019-02-27T05:15:30.754Z,-4.50
2019-02-27T05:16:06.204Z,-4.50
2019-02-27T05:16:41.513Z,-4.50
2019-02-27T05:17:21.190Z,-4.50
2019-02-27T05:17:55.668Z,-4.50
2019-02-27T05:18:30.998Z,-4.60
2019-02-27T05:19:06.429Z,-4.60
2019-02-27T05:19:42.123Z,-4.60
2019-02-27T05:20:17.603Z,-4.60
2019-02-27T05:20:53.097Z,-4.60
2019-02-27T05:21:28.533Z,-4.50
2019-02-27T05:22:03.976Z,-4.60
2019-02-27T05:22:39.308Z,-4.60
2019-02-27T05:23:14.735Z,-4.60
2019-02-27T05:23:50.513Z,-4.60
2019-02-27T05:24:25.986Z,-4.50
2019-02-27T05:25:01.450Z,-4.50
2019-02-27T05:25:36.842Z,-4.50
2019-02-27T05:26:12.297Z,-4.50
2019-02-27T05:26:47.851Z,-4.50
2019-02-27T05:27:23.347Z,-4.50
2019-02-27T05:28:01.030Z,-4.50
2019-02-27T05:28:35.854Z,-4.50
2019-02-27T05:29:11.527Z,-4.50
2019-02-27T05:29:46.922Z,-4.50
2019-02-27T05:30:22.360Z,-4.60
2019-02-27T05:30:57.799Z,-4.60
2019-02-27T05:31:33.004Z,-4.60
2019-02-27T05:32:08.484Z,-4.50
2019-02-27T05:32:44.445Z,-4.50
2019-02-27T05:33:19.795Z,-4.50
2019-02-27T05:33:55.269Z,-4.50
2019-02-27T05:34:30.762Z,-4.50
2019-02-27T05:35:06.438Z,-4.50
2019-02-27T05:35:41.809Z,-4.50
2019-02-27T05:36:17.657Z,-4.40
2019-02-27T05:36:53.107Z,-4.50
2019-02-27T05:37:28.651Z,-4.50
2019-02-27T05:38:04.164Z,-4.50
2019-02-27T05:38:40.978Z,-4.50
2019-02-27T05:39:17.320Z,-4.60
2019-02-27T05:39:53.523Z,-4.60
2019-02-27T05:40:28.983Z,-4.50
2019-02-27T05:41:04.470Z,-4.50
2019-02-27T05:41:39.969Z,-4.50
2019-02-27T05:42:15.666Z,-4.50
2019-02-27T05:42:51.094Z,-4.50
2019-02-27T05:43:26.409Z,-4.50
2019-02-27T05:44:02.265Z,-4.50
2019-02-27T05:44:37.694Z,-4.50
2019-02-27T05:45:13.813Z,-4.50
2019-02-27T05:45:49.293Z,-4.50
2019-02-27T05:46:25.947Z,-4.50
2019-02-27T05:47:01.498Z,-4.50
2019-02-27T05:47:36.790Z,-4.60
2019-02-27T05:48:12.231Z,-4.60
2019-02-27T05:48:47.650Z,-4.60
2019-02-27T05:49:26.596Z,-4.60
2019-02-27T05:50:00.639Z,-4.50
2019-02-27T05:50:37.097Z,-4.50
2019-02-27T05:51:13.069Z,-4.50
2019-02-27T05:51:48.666Z,-4.50
2019-02-27T05:52:24.682Z,-4.50
2019-02-27T05:53:00.079Z,-4.50
2019-02-27T05:53:35.515Z,-4.50
2019-02-27T05:54:10.987Z,-4.50
2019-02-27T05:54:47.072Z,-4.50
2019-02-27T05:55:22.441Z,-4.50
2019-02-27T05:55:58.564Z,-4.50
2019-02-27T05:56:34.006Z,-4.50
2019-02-27T05:57:09.463Z,-4.50
2019-02-27T05:57:44.856Z,-4.50
2019-02-27T05:58:22.837Z,-4.50
2019-02-27T05:58:57.682Z,-4.40
2019-02-27T05:59:33.105Z,-4.50
2019-02-27T06:00:12.305Z,-4.50
2019-02-27T06:00:48.300Z,-4.50
2019-02-27T06:01:23.600Z,-4.50
2019-02-27T06:01:59.089Z,-4.40
2019-02-27T06:02:34.538Z,-4.30
2019-02-27T06:03:10.168Z,-4.30
2019-02-27T06:03:45.508Z,-4.20
2019-02-27T06:04:24.965Z,-4.20
2019-02-27T06:04:59.044Z,-4.10
2019-02-27T06:05:35.913Z,-4.00
2019-02-27T06:06:12.451Z,-4.00
2019-02-27T06:06:48.026Z,-3.90
2019-02-27T06:07:23.561Z,-3.80
2019-02-27T06:08:02.053Z,-3.70
2019-02-27T06:08:38.090Z,-3.70
2019-02-27T06:09:13.319Z,-3.60
2019-02-27T06:09:49.092Z,-3.50
2019-02-27T06:10:24.422Z,-3.50
2019-02-27T06:10:59.890Z,-3.40
2019-02-27T06:11:35.320Z,-3.30
2019-02-27T06:12:10.898Z,-3.20
2019-02-27T06:12:47.638Z,-3.10
2019-02-27T06:13:23.042Z,-2.90
2019-02-27T06:13:58.484Z,-2.80
2019-02-27T06:14:34.017Z,-2.70
2019-02-27T06:15:12.886Z,-2.60
2019-02-27T06:15:49.265Z,-2.50
2019-02-27T06:16:24.753Z,-2.40
2019-02-27T06:17:00.075Z,-2.30
2019-02-27T06:17:43.141Z,-2.20
2019-02-27T06:18:12.545Z,-2.00
2019-02-27T06:18:48.180Z,-1.90
2019-02-27T06:19:23.888Z,-1.80
2019-02-27T06:19:59.324Z,-1.70
2019-02-27T06:20:34.886Z,-1.60
2019-02-27T06:21:10.406Z,-1.50
2019-02-27T06:21:46.061Z,-1.40
2019-02-27T06:22:21.505Z,-1.20
2019-02-27T06:22:57.307Z,-1.10
2019-02-27T06:23:35.306Z,-1.00
2019-02-27T06:24:12.539Z,-0.80
2019-02-27T06:24:47.713Z,-0.80
2019-02-27T06:25:23.942Z,-0.70
2019-02-27T06:26:00.254Z,-0.50
2019-02-27T06:26:35.835Z,-0.40
2019-02-27T06:27:11.323Z,-0.30
2019-02-27T06:27:46.594Z,-0.20
2019-02-27T06:28:22.133Z,-0.10
2019-02-27T06:28:57.536Z,0.00
2019-02-27T06:29:33.004Z,0.10
2019-02-27T06:30:10.123Z,0.20
2019-02-27T06:30:45.551Z,0.30
2019-02-27T06:31:21.143Z,0.40
2019-02-27T06:31:56.581Z,0.50
2019-02-27T06:32:31.875Z,0.50
2019-02-27T06:33:11.643Z,0.50
2019-02-27T06:33:45.736Z,0.60
2019-02-27T06:34:22.337Z,0.60
2019-02-27T06:34:59.457Z,0.80
2019-02-27T06:35:35.618Z,0.90
2019-02-27T06:36:10.999Z,1.00
2019-02-27T06:36:46.532Z,1.10
2019-02-27T06:37:22.022Z,1.20
2019-02-27T06:37:57.531Z,1.20
2019-02-27T06:38:32.943Z,1.30
2019-02-27T06:39:08.891Z,1.40
2019-02-27T06:39:44.405Z,1.50
2019-02-27T06:40:19.733Z,1.60
2019-02-27T06:40:55.170Z,1.70
2019-02-27T06:41:30.690Z,1.80
2019-02-27T06:42:06.179Z,1.90
2019-02-27T06:42:41.962Z,2.00
2019-02-27T06:43:17.410Z,2.10
2019-02-27T06:43:52.826Z,2.20
2019-02-27T06:44:28.565Z,2.20
2019-02-27T06:45:04.122Z,2.30
2019-02-27T06:45:39.729Z,2.40
2019-02-27T06:46:17.376Z,2.50
2019-02-27T06:46:53.744Z,2.60
2019-02-27T06:47:29.250Z,2.70
2019-02-27T06:48:09.451Z,2.70
2019-02-27T06:48:43.546Z,2.80
2019-02-27T06:49:19.084Z,2.90
2019-02-27T06:49:54.497Z,3.00
2019-02-27T06:50:29.956Z,3.10
2019-02-27T06:51:05.397Z,3.10
2019-02-27T06:51:40.777Z,3.20
2019-02-27T06:52:16.397Z,3.30
2019-02-27T06:52:51.817Z,3.30
2019-02-27T06:53:27.397Z,3.50
2019-02-27T06:54:03.093Z,3.50
2019-02-27T06:54:38.673Z,3.50
2019-02-27T06:55:14.250Z,3.60
2019-02-27T06:55:49.522Z,3.70
2019-02-27T06:56:24.886Z,3.70
2019-02-27T06:57:00.291Z,3.70
2019-02-27T06:57:35.872Z,3.70
2019-02-27T06:58:14.410Z,3.80
2019-02-27T06:58:50.117Z,3.90
2019-02-27T06:59:25.746Z,3.80
2019-02-27T07:00:02.952Z,3.80
2019-02-27T07:00:38.203Z,3.80
2019-02-27T07:01:13.529Z,3.80
2019-02-27T07:01:48.950Z,3.90
2019-02-27T07:02:24.371Z,3.90
2019-02-27T07:03:00.163Z,4.00
2019-02-27T07:03:35.459Z,4.00
2019-02-27T07:04:10.883Z,4.10
2019-02-27T07:04:46.226Z,4.20
2019-02-27T07:05:21.627Z,4.20
2019-02-27T07:05:57.166Z,4.20
2019-02-27T07:06:32.606Z,4.30
2019-02-27T07:07:08.149Z,4.40
2019-02-27T07:07:43.626Z,4.40
2019-02-27T07:08:19.398Z,4.30
2019-02-27T07:08:54.846Z,4.30
2019-02-27T07:09:30.641Z,4.30
2019-02-27T07:10:07.025Z,4.30
2019-02-27T07:10:42.532Z,4.20
2019-02-27T07:11:18.126Z,4.20
2019-02-27T07:11:54.066Z,4.20
2019-02-27T07:12:29.446Z,4.20
2019-02-27T07:13:05.036Z,4.20
2019-02-27T07:13:40.696Z,4.30
2019-02-27T07:14:16.474Z,4.40
2019-02-27T07:14:51.927Z,4.60
2019-02-27T07:15:27.216Z,4.60
2019-02-27T07:16:03.300Z,4.70
2019-02-27T07:16:39.071Z,4.80
2019-02-27T07:17:14.657Z,4.70
2019-02-27T07:17:50.892Z,4.70
2019-02-27T07:18:26.627Z,4.80
2019-02-27T07:19:02.089Z,4.90
2019-02-27T07:19:37.526Z,4.90
2019-02-27T07:20:13.481Z,4.90
2019-02-27T07:20:48.968Z,4.70
2019-02-27T07:21:24.505Z,4.70
2019-02-27T07:22:00.006Z,4.70
2019-02-27T07:22:35.522Z,4.70
2019-02-27T07:23:11.109Z,4.60
2019-02-27T07:23:46.786Z,4.70
2019-02-27T07:24:22.402Z,4.80
2019-02-27T07:24:57.911Z,5.00
2019-02-27T07:25:33.331Z,5.20
2019-02-27T07:26:08.827Z,5.30
2019-02-27T07:26:47.534Z,5.40
2019-02-27T07:27:21.716Z,5.40
2019-02-27T07:27:57.289Z,5.50
2019-02-27T07:28:32.738Z,5.60
2019-02-27T07:29:08.390Z,5.60
2019-02-27T07:29:43.919Z,5.80
2019-02-27T07:30:19.863Z,5.80
2019-02-27T07:30:55.303Z,5.80
2019-02-27T07:31:30.852Z,5.90
2019-02-27T07:32:06.247Z,5.90
2019-02-27T07:32:41.853Z,6.00
2019-02-27T07:33:17.490Z,6.00
2019-02-27T07:33:52.964Z,6.10
2019-02-27T07:34:28.491Z,6.10
2019-02-27T07:35:03.847Z,6.20
2019-02-27T07:35:39.154Z,6.10
2019-02-27T07:36:14.596Z,6.10
2019-02-27T07:36:50.032Z,6.20
2019-02-27T07:37:25.629Z,6.20
2019-02-27T07:38:01.224Z,6.30
2019-02-27T07:38:36.612Z,6.30
2019-02-27T07:39:12.229Z,6.30
2019-02-27T07:39:47.752Z,6.40
2019-02-27T07:40:23.025Z,6.50
2019-02-27T07:40:58.405Z,6.50
2019-02-27T07:41:33.953Z,6.40
2019-02-27T07:42:09.365Z,6.40
2019-02-27T07:42:45.035Z,6.50
2019-02-27T07:43:20.324Z,6.40
2019-02-27T07:43:55.830Z,6.50
2019-02-27T07:44:32.238Z,6.60
2019-02-27T07:45:10.647Z,6.80
2019-02-27T07:45:46.240Z,6.70
2019-02-27T07:46:22.430Z,6.90
2019-02-27T07:46:58.548Z,6.90
2019-02-27T07:47:34.251Z,7.10
2019-02-27T07:48:09.581Z,7.20
2019-02-27T07:48:44.870Z,7.30
2019-02-27T07:49:20.493Z,7.30
2019-02-27T07:49:56.010Z,7.40
2019-02-27T07:50:32.588Z,7.40
2019-02-27T07:51:08.240Z,7.40
2019-02-27T07:51:43.669Z,7.40
2019-02-27T07:52:19.161Z,7.30
2019-02-27T07:52:54.928Z,7.40
2019-02-27T07:53:30.856Z,7.40
2019-02-27T07:54:06.330Z,7.40
2019-02-27T07:54:41.649Z,7.40
2019-02-27T07:55:21.877Z,7.40
2019-02-27T07:55:54.850Z,7.50
2019-02-27T07:56:30.352Z,7.70
2019-02-27T07:57:06.006Z,7.70
2019-02-27T07:57:41.331Z,7.80
2019-02-27T07:58:16.861Z,7.80
2019-02-27T07:58:52.383Z,7.80
2019-02-27T07:59:27.862Z,7.90
2019-02-27T08:00:03.300Z,7.90
2019-02-27T08:00:38.802Z,7.80
2019-02-27T08:01:14.237Z,7.60
2019-02-27T08:01:49.673Z,7.60
2019-02-27T08:02:25.214Z,7.50
2019-02-27T08:03:01.226Z,7.50
2019-02-27T08:03:36.705Z,7.40
2019-02-27T08:04:12.322Z,7.20
2019-02-27T08:04:47.730Z,7.10
2019-02-27T08:05:28.283Z,7.20
2019-02-27T08:06:02.476Z,7.30
2019-02-27T08:06:37.731Z,7.30
2019-02-27T08:07:13.928Z,7.50
2019-02-27T08:07:49.920Z,7.60
2019-02-27T08:08:25.430Z,7.80
2019-02-27T08:09:00.790Z,7.80
2019-02-27T08:09:36.167Z,8.10
2019-02-27T08:10:16.707Z,8.30
2019-02-27T08:10:52.047Z,8.30
2019-02-27T08:11:27.417Z,8.50
2019-02-27T08:12:02.992Z,8.60
2019-02-27T08:12:38.682Z,8.60
2019-02-27T08:13:14.405Z,8.40
2019-02-27T08:13:50.207Z,8.60
2019-02-27T08:14:26.008Z,8.40
2019-02-27T08:15:01.850Z,8.40
2019-02-27T08:15:37.402Z,8.30
2019-02-27T08:16:13.072Z,8.30
2019-02-27T08:16:48.718Z,8.50
2019-02-27T08:17:24.288Z,8.60
2019-02-27T08:17:59.945Z,8.50
2019-02-27T08:18:37.653Z,8.50
2019-02-27T08:19:12.519Z,8.50
2019-02-27T08:19:48.158Z,8.50
2019-02-27T08:20:23.672Z,8.50
2019-02-27T08:20:59.302Z,8.50
2019-02-27T08:21:34.679Z,8.40
2019-02-27T08:22:10.777Z,8.40
2019-02-27T08:22:46.211Z,8.50
2019-02-27T08:23:21.678Z,8.80
2019-02-27T08:23:57.394Z,8.80
2019-02-27T08:24:33.803Z,8.90
2019-02-27T08:25:10.189Z,9.00
2019-02-27T08:25:45.681Z,9.00
2019-02-27T08:26:21.451Z,8.80
2019-02-27T08:26:56.899Z,8.80
2019-02-27T08:27:32.230Z,8.90
2019-02-27T08:28:07.740Z,8.90
2019-02-27T08:28:44.101Z,8.90
2019-02-27T08:29:19.782Z,9.00
2019-02-27T08:29:55.371Z,9.10
2019-02-27T08:30:30.703Z,9.20
2019-02-27T08:31:06.162Z,9.40
2019-02-27T08:31:41.759Z,9.40
2019-02-27T08:32:17.189Z,9.50
2019-02-27T08:32:52.517Z,9.40
2019-02-27T08:33:28.453Z,9.50
2019-02-27T08:34:04.338Z,9.40
2019-02-27T08:34:39.632Z,9.30
2019-02-27T08:35:16.711Z,9.40
2019-02-27T08:35:52.427Z,9.60
2019-02-27T08:36:27.929Z,9.70
2019-02-27T08:37:03.302Z,9.40
2019-02-27T08:37:38.846Z,9.20
2019-02-27T08:38:14.434Z,9.00
2019-02-27T08:38:49.915Z,9.00
2019-02-27T08:39:25.487Z,9.00
2019-02-27T08:40:01.067Z,8.70
2019-02-27T08:40:36.608Z,8.50
2019-02-27T08:41:12.094Z,8.40
2019-02-27T08:41:47.346Z,8.40
2019-02-27T08:42:22.786Z,8.20